createdAt,value
2023-05-24T00:02:13.858Z,99451.08
2023-05-24T00:04:42.123Z,99452.40
2023-05-24T00:07:09.917Z,99445.48
2023-05-24T00:09:37.423Z,99446.73
2023-05-24T00:12:05.398Z,99445.84
2023-05-24T00:14:32.988Z,99442.09
2023-05-24T00:17:00.538Z,99441.94
2023-05-24T00:19:28.787Z,99442.63
2023-05-24T00:21:56.160Z,99443.86
2023-05-24T00:24:23.652Z,99441.77
2023-05-24T00:26:50.992Z,99449.92
2023-05-24T00:29:18.335Z,99455.16
2023-05-24T00:31:45.979Z,99455.02
2023-05-24T00:34:13.422Z,99455.19
2023-05-24T00:36:40.936Z,99454.02
2023-05-24T00:39:09.601Z,99451.47
2023-05-24T00:41:37.317Z,99437.37
2023-05-24T00:44:04.869Z,99437.25
2023-05-24T00:46:33.717Z,99438.45
2023-05-24T00:49:02.053Z,99436.60
2023-05-24T00:51:32.222Z,99437.84
2023-05-24T00:53:59.570Z,99437.14
2023-05-24T00:56:27.655Z,99436.02
2023-05-24T00:58:56.167Z,99432.09
2023-05-24T01:01:30.584Z,99430.66
2023-05-24T01:03:59.179Z,99428.00
2023-05-24T01:06:28.272Z,99427.79
2023-05-24T01:09:28.705Z,99426.39
2023-05-24T01:12:15.323Z,99425.38
2023-05-24T01:15:24.610Z,99429.55
2023-05-24T01:18:05.142Z,99431.78
2023-05-24T01:20:34.602Z,99434.94
2023-05-24T01:23:14.013Z,99430.52
2023-05-24T01:26:11.831Z,99430.00
2023-05-24T01:28:40.858Z,99436.81
2023-05-24T01:31:09.181Z,99419.79
2023-05-24T01:33:44.129Z,99420.61
2023-05-24T01:36:11.390Z,99425.42
2023-05-24T01:38:41.313Z,99419.89
2023-05-24T01:41:26.875Z,99430.56
2023-05-24T01:44:08.864Z,99428.02
2023-05-24T01:46:38.350Z,99413.69
2023-05-24T01:49:26.133Z,99425.96
2023-05-24T01:52:13.454Z,99425.23
2023-05-24T01:54:45.376Z,99422.75
2023-05-24T01:57:13.004Z,99422.43
2023-05-24T01:59:43.119Z,99427.05
2023-05-24T02:02:11.892Z,99424.34
2023-05-24T02:04:41.125Z,99410.21
2023-05-24T02:07:08.974Z,99424.44
2023-05-24T02:09:38.627Z,99425.28
2023-05-24T02:12:07.854Z,99427.39
2023-05-24T02:14:37.769Z,99429.58
2023-05-24T02:17:05.852Z,99428.89
2023-05-24T02:19:36.462Z,99425.90
2023-05-24T02:22:07.022Z,99429.48
2023-05-24T02:24:34.593Z,99430.41
2023-05-24T02:27:02.445Z,99425.61
2023-05-24T02:29:30.059Z,99427.98
2023-05-24T02:31:59.626Z,99436.88
2023-05-24T02:34:27.164Z,99433.84
2023-05-24T02:36:55.705Z,99431.15
2023-05-24T02:39:23.340Z,99437.84
2023-05-24T02:41:51.251Z,99439.20
2023-05-24T02:44:19.240Z,99441.65
2023-05-24T02:46:47.135Z,99442.83
2023-05-24T02:49:15.285Z,99445.76
2023-05-24T02:51:42.688Z,99446.63
2023-05-24T02:54:10.249Z,99441.63
2023-05-24T02:56:39.148Z,99444.94
2023-05-24T02:59:06.662Z,99444.81
2023-05-24T03:01:34.129Z,99436.79
2023-05-24T03:04:02.630Z,99443.06
2023-05-24T03:06:30.960Z,99447.03
2023-05-24T03:08:58.864Z,99446.16
2023-05-24T03:11:26.822Z,99447.54
2023-05-24T03:13:54.226Z,99442.15
2023-05-24T03:16:21.950Z,99444.82
2023-05-24T03:18:54.972Z,99448.08
2023-05-24T03:21:23.368Z,99445.67
2023-05-24T03:23:50.817Z,99443.20
2023-05-24T03:26:18.654Z,99439.83
2023-05-24T03:28:47.280Z,99445.19
2023-05-24T03:31:15.030Z,99450.81
2023-05-24T03:33:42.651Z,99448.54
2023-05-24T03:36:10.041Z,99452.92
2023-05-24T03:38:37.758Z,99456.04
2023-05-24T03:41:05.450Z,99451.64
2023-05-24T03:43:33.577Z,99453.29
2023-05-24T03:46:03.306Z,99459.69
2023-05-24T03:48:30.767Z,99455.14
2023-05-24T03:50:59.291Z,99455.57
2023-05-24T03:53:26.708Z,99458.05
2023-05-24T03:55:55.332Z,99459.20
2023-05-24T03:58:22.752Z,99456.59
2023-05-24T04:00:55.350Z,99460.01
2023-05-24T04:03:25.899Z,99460.10
2023-05-24T04:05:54.374Z,99460.15
2023-05-24T04:08:21.906Z,99462.42
2023-05-24T04:10:49.267Z,99463.46
2023-05-24T04:13:16.865Z,99463.84
2023-05-24T04:15:44.558Z,99460.98
2023-05-24T04:18:12.480Z,99463.27
2023-05-24T04:20:41.492Z,99464.38
2023-05-24T04:23:10.142Z,99464.02
2023-05-24T04:25:37.756Z,99466.14
2023-05-24T04:28:05.873Z,99469.98
2023-05-24T04:30:33.324Z,99471.41
2023-05-24T04:33:01.521Z,99476.13
2023-05-24T04:35:29.875Z,99476.12
2023-05-24T04:37:57.392Z,99484.70
2023-05-24T04:40:25.162Z,99483.05
2023-05-24T04:42:52.743Z,99484.61
2023-05-24T04:45:20.688Z,99476.54
2023-05-24T04:47:48.470Z,99484.66
2023-05-24T04:50:16.348Z,99485.18
2023-05-24T04:52:43.674Z,99492.23
2023-05-24T04:55:11.099Z,99493.08
2023-05-24T04:57:38.544Z,99475.38
2023-05-24T05:00:10.141Z,99490.67
2023-05-24T05:02:37.785Z,99484.34
2023-05-24T05:05:06.077Z,99490.18
2023-05-24T05:07:34.056Z,99473.42
2023-05-24T05:10:01.573Z,99485.69
2023-05-24T05:12:29.384Z,99479.32
2023-05-24T05:14:56.792Z,99483.60
2023-05-24T05:17:24.449Z,99489.14
2023-05-24T05:19:51.869Z,99490.58
2023-05-24T05:22:19.238Z,99482.91
2023-05-24T05:24:47.062Z,99477.91
2023-05-24T05:27:14.691Z,99485.05
2023-05-24T05:29:42.554Z,99485.52
2023-05-24T05:32:10.359Z,99490.41
2023-05-24T05:34:37.665Z,99490.84
2023-05-24T05:37:05.864Z,99490.27
2023-05-24T05:39:33.398Z,99483.35
2023-05-24T05:42:02.241Z,99482.81
2023-05-24T05:44:29.993Z,99483.51
2023-05-24T05:46:57.746Z,99490.73
2023-05-24T05:49:25.045Z,99487.73
2023-05-24T05:51:53.389Z,99496.36
2023-05-24T05:54:21.279Z,99496.14
2023-05-24T05:56:48.741Z,99501.98
2023-05-24T05:59:16.669Z,99501.73
2023-05-24T06:01:49.230Z,99498.04
2023-05-24T06:04:17.467Z,99502.98
2023-05-24T06:06:49.267Z,99500.75
2023-05-24T06:09:16.995Z,99496.44
2023-05-24T06:11:59.463Z,99507.86
2023-05-24T06:14:27.092Z,99509.50
2023-05-24T06:17:00.594Z,99510.81
2023-05-24T06:19:28.005Z,99507.54
2023-05-24T06:21:55.516Z,99518.91
2023-05-24T06:24:23.446Z,99520.21
2023-05-24T06:26:52.513Z,99514.77
2023-05-24T06:29:21.554Z,99525.45
2023-05-24T06:31:49.421Z,99521.29
2023-05-24T06:34:20.766Z,99513.45
2023-05-24T06:36:51.031Z,99510.95
2023-05-24T06:39:19.196Z,99512.33
2023-05-24T06:41:47.379Z,99505.83
2023-05-24T06:44:22.281Z,99504.83
2023-05-24T06:46:58.937Z,99514.68
2023-05-24T06:49:27.935Z,99514.27
2023-05-24T06:51:56.012Z,99512.59
2023-05-24T06:54:23.694Z,99504.30
2023-05-24T06:56:52.304Z,99511.00
2023-05-24T06:59:19.930Z,99518.32
2023-05-24T07:01:49.113Z,99523.00
2023-05-24T07:04:16.705Z,99521.53
2023-05-24T07:06:45.979Z,99511.41
2023-05-24T07:09:14.023Z,99517.84
2023-05-24T07:11:59.755Z,99521.02
2023-05-24T07:14:32.344Z,99515.59
2023-05-24T07:17:01.430Z,99525.94
2023-05-24T07:19:29.846Z,99524.36
2023-05-24T07:21:57.617Z,99530.56
2023-05-24T07:24:25.936Z,99528.88
2023-05-24T07:26:53.554Z,99529.04
2023-05-24T07:29:21.404Z,99518.69
2023-05-24T07:31:49.228Z,99534.52
2023-05-24T07:34:20.944Z,99529.90
2023-05-24T07:36:50.212Z,99529.15
2023-05-24T07:39:18.698Z,99535.40
2023-05-24T07:41:46.377Z,99534.09
2023-05-24T07:44:15.025Z,99536.55
2023-05-24T07:46:42.902Z,99529.22
2023-05-24T07:49:11.085Z,99531.77
2023-05-24T07:51:38.870Z,99524.15
2023-05-24T07:54:06.929Z,99542.27
2023-05-24T07:56:35.345Z,99543.17
2023-05-24T07:59:06.582Z,99541.71
2023-05-24T08:01:35.670Z,99539.16
2023-05-24T08:04:04.592Z,99543.70
2023-05-24T08:06:35.029Z,99544.59
2023-05-24T08:09:04.626Z,99530.00
2023-05-24T08:11:32.809Z,99541.31
2023-05-24T08:14:00.906Z,99537.79
2023-05-24T08:16:28.693Z,99538.79
2023-05-24T08:18:56.617Z,99541.36
2023-05-24T08:21:27.416Z,99530.02
2023-05-24T08:23:56.426Z,99537.73
2023-05-24T08:26:23.860Z,99534.02
2023-05-24T08:28:52.634Z,99540.36
2023-05-24T08:31:29.003Z,99532.04
2023-05-24T08:33:57.322Z,99533.89
2023-05-24T08:36:25.405Z,99539.47
2023-05-24T08:38:53.707Z,99536.83
2023-05-24T08:41:22.371Z,99531.31
2023-05-24T08:43:52.600Z,99536.27
2023-05-24T08:46:22.125Z,99537.88
2023-05-24T08:48:53.998Z,99533.48
2023-05-24T08:51:24.179Z,99528.92
2023-05-24T08:53:52.321Z,99529.30
2023-05-24T08:56:19.786Z,99530.27
2023-05-24T08:58:48.381Z,99518.70
2023-05-24T09:01:17.028Z,99530.48
2023-05-24T09:03:47.049Z,99531.81
2023-05-24T09:06:19.180Z,99530.53
2023-05-24T09:08:47.245Z,99534.77
2023-05-24T09:11:16.764Z,99534.45
2023-05-24T09:13:45.758Z,99520.97
2023-05-24T09:16:14.877Z,99529.48
2023-05-24T09:18:45.376Z,99535.85
2023-05-24T09:21:13.696Z,99523.69
2023-05-24T09:23:41.531Z,99535.58
2023-05-24T09:26:11.250Z,99534.09
2023-05-24T09:28:41.291Z,99530.06
2023-05-24T09:31:09.076Z,99536.97
2023-05-24T09:33:36.593Z,99524.30
2023-05-24T09:36:06.415Z,99533.66
2023-05-24T09:38:35.720Z,99530.22
2023-05-24T09:41:08.366Z,99531.89
2023-05-24T09:43:49.052Z,99515.46
2023-05-24T09:46:21.337Z,99517.95
2023-05-24T09:48:59.260Z,99503.95
2023-05-24T09:51:27.306Z,99512.09
2023-05-24T09:54:00.959Z,99513.84
2023-05-24T09:56:30.755Z,99515.02
2023-05-24T09:58:58.925Z,99511.38
2023-05-24T10:01:27.862Z,99516.34
2023-05-24T10:03:58.714Z,99513.75
2023-05-24T10:06:27.585Z,99513.88
2023-05-24T10:08:56.878Z,99522.71
2023-05-24T10:11:24.835Z,99521.61
2023-05-24T10:13:52.966Z,99518.06
2023-05-24T10:16:20.558Z,99517.14
2023-05-24T10:18:49.550Z,99516.41
2023-05-24T10:21:20.176Z,99513.08
2023-05-24T10:23:54.339Z,99512.36
2023-05-24T10:26:25.986Z,99509.18
2023-05-24T10:29:03.223Z,99510.80
2023-05-24T10:31:35.123Z,99511.77
2023-05-24T10:34:08.491Z,99510.77
2023-05-24T10:36:40.018Z,99511.31
2023-05-24T10:39:14.379Z,99517.08
2023-05-24T10:41:44.671Z,99510.77
2023-05-24T10:44:13.519Z,99508.52
2023-05-24T10:47:13.520Z,99503.90
2023-05-24T10:49:54.769Z,99497.90
2023-05-24T10:52:34.773Z,99501.39
2023-05-24T10:55:09.177Z,99502.36
2023-05-24T10:57:38.477Z,99501.77
2023-05-24T11:00:34.524Z,99493.44
2023-05-24T11:03:10.668Z,99481.55
2023-05-24T11:05:59.417Z,99485.21
2023-05-24T11:08:35.826Z,99484.02
2023-05-24T11:11:22.404Z,99481.27
2023-05-24T11:13:57.765Z,99477.66
2023-05-24T11:16:40.513Z,99472.27
2023-05-24T11:19:12.834Z,99476.27
2023-05-24T11:21:46.853Z,99475.61
2023-05-24T11:24:18.274Z,99474.29
2023-05-24T11:26:46.653Z,99473.84
2023-05-24T11:29:20.511Z,99472.01
2023-05-24T11:31:49.117Z,99468.05
2023-05-24T11:34:17.395Z,99470.77
2023-05-24T11:36:46.981Z,99465.89
2023-05-24T11:39:15.880Z,99472.83
2023-05-24T11:41:46.216Z,99469.41
2023-05-24T11:44:19.603Z,99457.52
2023-05-24T11:46:47.218Z,99465.33
2023-05-24T11:49:17.760Z,99468.41
2023-05-24T11:51:45.754Z,99458.71
2023-05-24T11:54:13.700Z,99457.16
2023-05-24T11:56:41.240Z,99457.17
2023-05-24T11:59:17.301Z,99448.71
2023-05-24T12:01:44.922Z,99450.77
2023-05-24T12:04:13.481Z,99449.23
2023-05-24T12:06:43.811Z,99442.67
2023-05-24T12:09:15.110Z,99441.25
2023-05-24T12:11:45.874Z,99434.10
2023-05-24T12:14:15.636Z,99437.40
2023-05-24T12:16:45.110Z,99436.57
2023-05-24T12:19:32.271Z,99435.30
2023-05-24T12:22:05.448Z,99436.18
2023-05-24T12:24:33.542Z,99433.32
2023-05-24T12:27:06.481Z,99430.54
2023-05-24T12:29:42.776Z,99430.69
2023-05-24T12:32:14.762Z,99434.46
2023-05-24T12:34:44.798Z,99435.67
2023-05-24T12:37:15.193Z,99435.94
2023-05-24T12:39:44.197Z,99437.97
2023-05-24T12:42:13.059Z,99436.22
2023-05-24T12:44:41.467Z,99437.16
2023-05-24T12:47:09.723Z,99438.17
2023-05-24T12:49:37.437Z,99435.30
2023-05-24T12:52:07.259Z,99433.55
2023-05-24T12:54:34.622Z,99440.46
2023-05-24T12:57:02.901Z,99436.98
2023-05-24T12:59:30.740Z,99435.00
2023-05-24T13:01:58.469Z,99433.21
2023-05-24T13:04:27.784Z,99436.17
2023-05-24T13:06:55.414Z,99432.19
2023-05-24T13:09:23.320Z,99430.10
2023-05-24T13:11:51.984Z,99426.99
2023-05-24T13:14:19.907Z,99427.53
2023-05-24T13:16:48.286Z,99429.23
2023-05-24T13:19:16.802Z,99428.91
2023-05-24T13:21:44.711Z,99426.98
2023-05-24T13:24:16.922Z,99428.86
2023-05-24T13:26:45.649Z,99421.45
2023-05-24T13:31:45.012Z,99426.64
2023-05-24T13:34:13.278Z,99424.90
2023-05-24T13:36:42.809Z,99418.10
2023-05-24T13:41:42.486Z,99410.69
2023-05-24T13:44:10.712Z,99413.52
2023-05-24T13:46:39.343Z,99414.23
2023-05-24T13:49:09.039Z,99417.48
2023-05-24T13:51:38.759Z,99421.08
2023-05-24T13:54:06.830Z,99415.93
2023-05-24T13:56:34.707Z,99418.70
2023-05-24T13:59:03.223Z,99419.89
2023-05-24T14:01:31.559Z,99413.95
2023-05-24T14:04:03.580Z,99421.23
2023-05-24T14:06:32.778Z,99421.31
2023-05-24T14:09:00.672Z,99417.64
2023-05-24T14:11:32.302Z,99417.93
2023-05-24T14:16:32.222Z,99421.34
2023-05-24T14:19:00.302Z,99425.30
2023-05-24T14:21:27.838Z,99431.52
2023-05-24T14:23:55.282Z,99432.15
2023-05-24T14:26:23.080Z,99432.65
2023-05-24T14:28:54.468Z,99436.58
2023-05-24T14:31:24.301Z,99438.27
2023-05-24T14:33:51.714Z,99442.13
2023-05-24T14:36:19.516Z,99441.33
2023-05-24T14:38:46.843Z,99441.98
2023-05-24T14:41:15.109Z,99439.05
2023-05-24T14:43:44.288Z,99439.27
2023-05-24T14:46:11.996Z,99433.73
2023-05-24T14:48:41.028Z,99439.88
2023-05-24T14:51:08.809Z,99435.91
2023-05-24T14:53:36.513Z,99434.86
2023-05-24T14:56:05.982Z,99438.52
2023-05-24T14:58:35.554Z,99436.23
2023-05-24T15:01:04.565Z,99437.12
2023-05-24T15:03:32.563Z,99434.59
2023-05-24T15:06:06.472Z,99433.52
2023-05-24T15:08:45.366Z,99437.00
2023-05-24T15:11:12.835Z,99435.52
2023-05-24T15:13:40.331Z,99436.91
2023-05-24T15:16:07.940Z,99442.30
2023-05-24T15:18:35.458Z,99440.29
2023-05-24T15:21:03.616Z,99441.00
2023-05-24T15:23:31.121Z,99432.35
2023-05-24T15:25:58.689Z,99433.82
2023-05-24T15:28:26.818Z,99436.90
2023-05-24T15:30:54.722Z,99433.27
2023-05-24T15:33:22.781Z,99441.58
2023-05-24T15:35:50.267Z,99445.40
2023-05-24T15:38:18.348Z,99442.05
2023-05-24T15:40:45.995Z,99435.81
2023-05-24T15:43:15.488Z,99436.07
2023-05-24T15:45:44.001Z,99440.68
2023-05-24T15:48:12.822Z,99442.75
2023-05-24T15:51:01.875Z,99445.96
2023-05-24T15:53:28.175Z,99436.84
2023-05-24T15:55:56.973Z,99442.54
2023-05-24T15:58:24.800Z,99442.02
2023-05-24T16:00:53.134Z,99443.11
2023-05-24T16:03:21.268Z,99441.91
2023-05-24T16:05:49.103Z,99441.29
2023-05-24T16:08:16.658Z,99442.87
2023-05-24T16:10:48.705Z,99446.67
2023-05-24T16:13:16.884Z,99449.63
2023-05-24T16:15:51.009Z,99446.00
2023-05-24T16:18:23.510Z,99446.65
2023-05-24T16:20:52.218Z,99446.76
2023-05-24T16:23:22.444Z,99445.55
2023-05-24T16:25:51.169Z,99446.05
2023-05-24T16:28:23.490Z,99443.80
2023-05-24T16:30:55.523Z,99442.87
2023-05-24T16:33:24.580Z,99449.48
2023-05-24T16:35:55.387Z,99453.70
2023-05-24T16:38:24.868Z,99449.96
2023-05-24T16:40:53.916Z,99454.21
2023-05-24T16:43:21.845Z,99456.24
2023-05-24T16:45:49.671Z,99450.48
2023-05-24T16:48:20.758Z,99440.95
2023-05-24T16:50:49.873Z,99450.88
2023-05-24T16:53:17.928Z,99447.61
2023-05-24T16:55:45.563Z,99448.61
2023-05-24T16:58:12.832Z,99457.30
2023-05-24T17:00:41.199Z,99463.70
2023-05-24T17:03:10.062Z,99464.96
2023-05-24T17:05:38.401Z,99462.65
2023-05-24T17:08:06.472Z,99465.17
2023-05-24T17:10:34.813Z,99467.42
2023-05-24T17:13:02.932Z,99466.20
2023-05-24T17:15:31.164Z,99467.98
2023-05-24T17:17:58.957Z,99463.80
2023-05-24T17:20:27.298Z,99472.16
2023-05-24T17:22:55.722Z,99478.70
2023-05-24T17:25:23.284Z,99477.59
2023-05-24T17:27:50.598Z,99477.98
2023-05-24T17:30:19.336Z,99481.05
2023-05-24T17:32:47.140Z,99481.98
2023-05-24T17:35:15.337Z,99482.42
2023-05-24T17:37:44.901Z,99483.08
2023-05-24T17:40:12.723Z,99484.75
2023-05-24T17:42:43.037Z,99484.43
2023-05-24T17:45:11.582Z,99483.40
2023-05-24T17:47:39.717Z,99486.59
2023-05-24T17:50:10.028Z,99481.85
2023-05-24T17:52:37.190Z,99481.86
2023-05-24T17:55:06.798Z,99487.48
2023-05-24T17:57:34.318Z,99492.39
2023-05-24T18:00:03.590Z,99494.43
2023-05-24T18:02:31.638Z,99502.59
2023-05-24T18:05:00.832Z,99505.55
2023-05-24T18:07:29.640Z,99507.09
2023-05-24T18:10:00.146Z,99502.62
2023-05-24T18:12:29.540Z,99509.33
2023-05-24T18:14:57.222Z,99510.32
2023-05-24T18:17:26.929Z,99512.71
2023-05-24T18:19:55.627Z,99515.45
2023-05-24T18:22:23.649Z,99509.87
2023-05-24T18:24:51.118Z,99510.33
2023-05-24T18:27:18.486Z,99519.73
2023-05-24T18:29:47.550Z,99510.81
2023-05-24T18:32:15.426Z,99525.25
2023-05-24T18:34:44.707Z,99526.96
2023-05-24T18:37:14.243Z,99523.44
2023-05-24T18:39:43.212Z,99526.81
2023-05-24T18:42:12.216Z,99527.48
2023-05-24T18:44:41.771Z,99530.15
2023-05-24T18:47:10.550Z,99523.24
2023-05-24T18:49:39.977Z,99528.00
2023-05-24T18:52:07.845Z,99532.23
2023-05-24T18:54:35.625Z,99531.30
2023-05-24T18:57:04.200Z,99542.18
2023-05-24T18:59:34.117Z,99543.41
2023-05-24T19:02:02.772Z,99547.23
2023-05-24T19:04:30.360Z,99546.60
2023-05-24T19:06:57.843Z,99560.66
2023-05-24T19:09:25.183Z,99568.64
2023-05-24T19:11:58.434Z,99576.29
2023-05-24T19:14:25.986Z,99573.17
2023-05-24T19:16:55.639Z,99572.98
2023-05-24T19:19:22.920Z,99578.73
2023-05-24T19:21:50.171Z,99577.55
2023-05-24T19:24:17.891Z,99588.30
2023-05-24T19:26:45.704Z,99589.73
2023-05-24T19:29:13.157Z,99591.07
2023-05-24T19:31:46.223Z,99590.83
2023-05-24T19:34:14.209Z,99591.30
2023-05-24T19:36:41.731Z,99589.45
2023-05-24T19:39:09.568Z,99585.27
2023-05-24T19:41:39.917Z,99581.64
2023-05-24T19:44:07.992Z,99582.44
2023-05-24T19:46:36.744Z,99592.02
2023-05-24T19:49:06.665Z,99590.34
2023-05-24T19:51:38.257Z,99589.95
2023-05-24T19:54:08.696Z,99591.88
2023-05-24T19:56:37.412Z,99591.89
2023-05-24T19:59:05.545Z,99590.88
2023-05-24T20:01:34.265Z,99582.96
2023-05-24T20:04:02.214Z,99594.84
2023-05-24T20:06:30.976Z,99601.58
2023-05-24T20:08:59.426Z,99601.77
2023-05-24T20:11:27.675Z,99604.02
2023-05-24T20:13:55.727Z,99607.04
2023-05-24T20:16:24.148Z,99600.70
2023-05-24T20:18:53.480Z,99598.71
2023-05-24T20:21:21.647Z,99599.83
2023-05-24T20:23:56.580Z,99598.39
2023-05-24T20:26:26.310Z,99595.77
2023-05-24T20:28:56.334Z,99595.63
2023-05-24T20:31:24.490Z,99596.40
2023-05-24T20:33:52.677Z,99595.69
2023-05-24T20:36:21.821Z,99596.01
2023-05-24T20:38:51.121Z,99595.29
2023-05-24T20:41:20.760Z,99592.83
2023-05-24T20:43:49.001Z,99594.45
2023-05-24T20:46:17.491Z,99601.63
2023-05-24T20:48:47.270Z,99602.86
2023-05-24T20:51:14.666Z,99595.07
2023-05-24T20:53:42.253Z,99594.00
2023-05-24T20:56:09.930Z,99589.20
2023-05-24T20:58:39.666Z,99588.27
2023-05-24T21:01:07.924Z,99591.31
2023-05-24T21:03:35.445Z,99599.55
2023-05-24T21:06:02.841Z,99603.17
2023-05-24T21:08:30.880Z,99607.21
2023-05-24T21:10:58.051Z,99604.41
2023-05-24T21:13:26.682Z,99599.46
2023-05-24T21:15:54.482Z,99603.71
2023-05-24T21:18:21.879Z,99605.52
2023-05-24T21:20:49.035Z,99613.45
2023-05-24T21:23:16.262Z,99615.67
2023-05-24T21:25:43.780Z,99616.57
2023-05-24T21:28:11.225Z,99609.38
2023-05-24T21:30:38.515Z,99618.59
2023-05-24T21:33:05.826Z,99622.85
2023-05-24T21:35:33.089Z,99628.04
2023-05-24T21:38:00.599Z,99629.45
2023-05-24T21:40:28.005Z,99627.37
2023-05-24T21:42:55.241Z,99625.92
2023-05-24T21:45:22.501Z,99621.71
2023-05-24T21:47:49.964Z,99625.93
2023-05-24T21:50:17.254Z,99623.61
2023-05-24T21:52:44.945Z,99626.45
2023-05-24T21:55:12.194Z,99629.88
2023-05-24T21:57:39.534Z,99628.71
2023-05-24T22:00:08.388Z,99632.09
2023-05-24T22:02:37.148Z,99626.23
2023-05-24T22:05:05.698Z,99630.66
2023-05-24T22:07:32.907Z,99629.74
2023-05-24T22:10:00.151Z,99615.69
2023-05-24T22:12:27.445Z,99616.96
2023-05-24T22:14:54.726Z,99613.30
2023-05-24T22:17:22.563Z,99622.18
2023-05-24T22:19:50.007Z,99626.02
2023-05-24T22:22:19.375Z,99626.69
2023-05-24T22:24:46.835Z,99628.79
2023-05-24T22:27:16.418Z,99625.23
2023-05-24T22:29:43.874Z,99624.33
2023-05-24T22:32:11.194Z,99625.73
2023-05-24T22:34:38.943Z,99627.95
2023-05-24T22:37:07.501Z,99629.17
2023-05-24T22:39:35.140Z,99634.44
2023-05-24T22:42:02.735Z,99640.68
2023-05-24T22:44:30.431Z,99638.08
2023-05-24T22:46:57.639Z,99646.13
2023-05-24T22:49:25.047Z,99651.40
2023-05-24T22:51:54.852Z,99657.56
2023-05-24T22:54:22.286Z,99672.36
2023-05-24T22:56:49.624Z,99666.54
2023-05-24T22:59:16.985Z,99673.59
2023-05-24T23:01:44.728Z,99674.75
2023-05-24T23:06:46.240Z,99682.78
2023-05-24T23:09:13.666Z,99674.98
2023-05-24T23:11:42.320Z,99673.73
2023-05-24T23:14:10.968Z,99675.95
2023-05-24T23:16:44.512Z,99674.22
2023-05-24T23:19:12.905Z,99664.52
2023-05-24T23:21:41.692Z,99665.89
2023-05-24T23:24:14.265Z,99667.48
2023-05-24T23:26:42.448Z,99663.86
2023-05-24T23:29:10.034Z,99658.88
2023-05-24T23:31:37.783Z,99663.38
2023-05-24T23:34:05.317Z,99663.98
2023-05-24T23:36:33.328Z,99670.67
2023-05-24T23:39:00.728Z,99664.50
2023-05-24T23:41:28.249Z,99669.17
2023-05-24T23:43:55.453Z,99670.42
2023-05-24T23:46:23.335Z,99671.63
2023-05-24T23:48:50.869Z,99661.66
2023-05-24T23:51:19.777Z,99664.77
2023-05-24T23:53:47.208Z,99662.50
2023-05-24T23:56:14.321Z,99661.81
2023-05-24T23:58:41.813Z,99665.17
